sensor_id;sensor_type;location;lat;lon;timestamp;temperature;humidity
75321;DHT22;68337;52.196;5.660;2024-03-22T00:02:02;10.80;99.90
75321;DHT22;68337;52.196;5.660;2024-03-22T00:04:28;10.80;99.90
75321;DHT22;68337;52.196;5.660;2024-03-22T00:06:54;10.70;99.90
75321;DHT22;68337;52.196;5.660;2024-03-22T00:09:19;10.80;99.90
75321;DHT22;68337;52.196;5.660;2024-03-22T00:11:45;10.90;99.90
75321;DHT22;68337;52.196;5.660;2024-03-22T00:14:11;10.90;99.90
75321;DHT22;68337;52.196;5.660;2024-03-22T00:16:37;10.90;99.90
75321;DHT22;68337;52.196;5.660;2024-03-22T00:19:03;10.90;99.90
75321;DHT22;68337;52.196;5.660;2024-03-22T00:21:29;10.90;99.90
75321;DHT22;68337;52.196;5.660;2024-03-22T00:23:56;11.00;99.90
75321;DHT22;68337;52.196;5.660;2024-03-22T00:26:21;11.00;99.90
75321;DHT22;68337;52.196;5.660;2024-03-22T00:28:47;11.10;99.90
75321;DHT22;68337;52.196;5.660;2024-03-22T00:31:13;11.10;99.90
75321;DHT22;68337;52.196;5.660;2024-03-22T00:33:39;11.00;99.90
75321;DHT22;68337;52.196;5.660;2024-03-22T00:36:05;11.00;99.90
75321;DHT22;68337;52.196;5.660;2024-03-22T00:38:31;11.10;99.90
75321;DHT22;68337;52.196;5.660;2024-03-22T00:40:58;11.00;99.90
75321;DHT22;68337;52.196;5.660;2024-03-22T00:43:23;11.00;99.90
75321;DHT22;68337;52.196;5.660;2024-03-22T00:45:49;11.00;99.90
75321;DHT22;68337;52.196;5.660;2024-03-22T00:48:15;11.00;99.90
75321;DHT22;68337;52.196;5.660;2024-03-22T00:50:41;11.00;99.90
75321;DHT22;68337;52.196;5.660;2024-03-22T00:53:07;11.00;99.90
75321;DHT22;68337;52.196;5.660;2024-03-22T00:55:34;10.90;99.90
75321;DHT22;68337;52.196;5.660;2024-03-22T00:57:59;10.90;99.90
75321;DHT22;68337;52.196;5.660;2024-03-22T01:00:25;10.90;99.90
75321;DHT22;68337;52.196;5.660;2024-03-22T01:02:51;11.00;99.90
75321;DHT22;68337;52.196;5.660;2024-03-22T01:05:17;10.90;99.90
75321;DHT22;68337;52.196;5.660;2024-03-22T01:07:43;10.90;99.90
75321;DHT22;68337;52.196;5.660;2024-03-22T01:10:10;11.00;99.90
75321;DHT22;68337;52.196;5.660;2024-03-22T01:12:36;10.90;99.90
75321;DHT22;68337;52.196;5.660;2024-03-22T01:15:02;10.90;99.90
75321;DHT22;68337;52.196;5.660;2024-03-22T01:17:27;10.90;99.90
75321;DHT22;68337;52.196;5.660;2024-03-22T01:19:53;10.90;99.90
75321;DHT22;68337;52.196;5.660;2024-03-22T01:22:19;10.90;99.90
75321;DHT22;68337;52.196;5.660;2024-03-22T01:24:45;10.90;99.90
75321;DHT22;68337;52.196;5.660;2024-03-22T01:27:11;10.90;99.90
75321;DHT22;68337;52.196;5.660;2024-03-22T01:29:37;11.00;99.90
75321;DHT22;68337;52.196;5.660;2024-03-22T01:32:03;11.00;99.90
75321;DHT22;68337;52.196;5.660;2024-03-22T01:34:29;11.00;99.90
75321;DHT22;68337;52.196;5.660;2024-03-22T01:36:54;11.00;99.90
75321;DHT22;68337;52.196;5.660;2024-03-22T01:39:21;11.00;99.90
75321;DHT22;68337;52.196;5.660;2024-03-22T01:41:47;11.10;99.90
75321;DHT22;68337;52.196;5.660;2024-03-22T01:53:23;11.10;99.90
75321;DHT22;68337;52.196;5.660;2024-03-22T01:55:49;11.10;99.90
75321;DHT22;68337;52.196;5.660;2024-03-22T01:58:15;11.10;99.90
75321;DHT22;68337;52.196;5.660;2024-03-22T02:00:41;11.10;99.90
75321;DHT22;68337;52.196;5.660;2024-03-22T02:03:06;11.20;99.90
75321;DHT22;68337;52.196;5.660;2024-03-22T02:05:32;11.10;99.90
75321;DHT22;68337;52.196;5.660;2024-03-22T02:07:58;11.10;99.90
75321;DHT22;68337;52.196;5.660;2024-03-22T02:10:23;11.10;99.90
75321;DHT22;68337;52.196;5.660;2024-03-22T02:12:49;11.10;99.90
75321;DHT22;68337;52.196;5.660;2024-03-22T02:15:15;11.10;99.90
75321;DHT22;68337;52.196;5.660;2024-03-22T02:17:40;11.10;99.90
75321;DHT22;68337;52.196;5.660;2024-03-22T02:20:07;11.10;99.90
75321;DHT22;68337;52.196;5.660;2024-03-22T02:22:33;11.10;99.90
75321;DHT22;68337;52.196;5.660;2024-03-22T02:24:59;11.10;99.90
75321;DHT22;68337;52.196;5.660;2024-03-22T02:27:25;11.20;99.90
75321;DHT22;68337;52.196;5.660;2024-03-22T02:29:51;11.20;99.90
75321;DHT22;68337;52.196;5.660;2024-03-22T02:32:17;11.20;99.90
75321;DHT22;68337;52.196;5.660;2024-03-22T02:34:42;11.20;99.90
75321;DHT22;68337;52.196;5.660;2024-03-22T02:37:08;11.20;99.90
75321;DHT22;68337;52.196;5.660;2024-03-22T02:39:34;11.30;99.90
75321;DHT22;68337;52.196;5.660;2024-03-22T02:41:59;11.30;99.90
75321;DHT22;68337;52.196;5.660;2024-03-22T02:44:25;11.20;99.90
75321;DHT22;68337;52.196;5.660;2024-03-22T02:46:51;11.20;99.90
75321;DHT22;68337;52.196;5.660;2024-03-22T02:49:16;11.20;99.90
75321;DHT22;68337;52.196;5.660;2024-03-22T02:51:42;11.20;99.90
75321;DHT22;68337;52.196;5.660;2024-03-22T02:54:08;11.20;99.90
75321;DHT22;68337;52.196;5.660;2024-03-22T02:56:33;11.20;99.90
75321;DHT22;68337;52.196;5.660;2024-03-22T02:58:59;11.20;99.90
75321;DHT22;68337;52.196;5.660;2024-03-22T03:01:25;11.30;99.90
75321;DHT22;68337;52.196;5.660;2024-03-22T03:03:50;11.30;99.90
75321;DHT22;68337;52.196;5.660;2024-03-22T03:06:16;11.30;99.90
75321;DHT22;68337;52.196;5.660;2024-03-22T03:08:45;11.30;99.90
75321;DHT22;68337;52.196;5.660;2024-03-22T03:11:11;11.20;99.90
75321;DHT22;68337;52.196;5.660;2024-03-22T03:13:36;11.20;99.90
75321;DHT22;68337;52.196;5.660;2024-03-22T03:16:03;11.20;99.90
75321;DHT22;68337;52.196;5.660;2024-03-22T03:18:28;11.20;99.90
75321;DHT22;68337;52.196;5.660;2024-03-22T03:20:54;11.20;99.90
75321;DHT22;68337;52.196;5.660;2024-03-22T03:23:20;11.20;99.90
75321;DHT22;68337;52.196;5.660;2024-03-22T03:25:46;11.20;99.90
75321;DHT22;68337;52.196;5.660;2024-03-22T03:28:11;11.10;99.90
75321;DHT22;68337;52.196;5.660;2024-03-22T03:30:38;11.10;99.90
75321;DHT22;68337;52.196;5.660;2024-03-22T03:33:04;11.20;99.90
75321;DHT22;68337;52.196;5.660;2024-03-22T03:35:30;11.10;99.90
75321;DHT22;68337;52.196;5.660;2024-03-22T03:37:56;11.10;99.90
75321;DHT22;68337;52.196;5.660;2024-03-22T03:40:22;11.10;99.90
75321;DHT22;68337;52.196;5.660;2024-03-22T03:42:50;11.00;99.90
75321;DHT22;68337;52.196;5.660;2024-03-22T03:45:16;11.10;99.90
75321;DHT22;68337;52.196;5.660;2024-03-22T03:47:42;11.00;99.90
75321;DHT22;68337;52.196;5.660;2024-03-22T03:50:08;10.90;99.90
75321;DHT22;68337;52.196;5.660;2024-03-22T03:52:33;11.00;99.90
75321;DHT22;68337;52.196;5.660;2024-03-22T03:54:59;11.00;99.90
75321;DHT22;68337;52.196;5.660;2024-03-22T03:57:25;10.90;99.90
75321;DHT22;68337;52.196;5.660;2024-03-22T03:59:51;10.90;99.90
75321;DHT22;68337;52.196;5.660;2024-03-22T04:02:17;10.80;99.90
75321;DHT22;68337;52.196;5.660;2024-03-22T04:04:42;10.80;99.90
75321;DHT22;68337;52.196;5.660;2024-03-22T04:07:08;10.80;99.90
75321;DHT22;68337;52.196;5.660;2024-03-22T04:09:34;10.80;99.90
75321;DHT22;68337;52.196;5.660;2024-03-22T04:12:00;10.70;99.90
75321;DHT22;68337;52.196;5.660;2024-03-22T04:14:26;10.70;99.90
75321;DHT22;68337;52.196;5.660;2024-03-22T04:16:52;10.70;99.90
75321;DHT22;68337;52.196;5.660;2024-03-22T04:19:20;10.70;99.90
75321;DHT22;68337;52.196;5.660;2024-03-22T04:21:46;10.70;99.90
75321;DHT22;68337;52.196;5.660;2024-03-22T04:24:12;10.70;99.90
75321;DHT22;68337;52.196;5.660;2024-03-22T04:26:38;10.80;99.90
75321;DHT22;68337;52.196;5.660;2024-03-22T04:29:04;10.80;99.90
75321;DHT22;68337;52.196;5.660;2024-03-22T04:31:29;10.80;99.90
75321;DHT22;68337;52.196;5.660;2024-03-22T04:33:56;10.70;99.90
75321;DHT22;68337;52.196;5.660;2024-03-22T04:36:21;10.70;99.90
75321;DHT22;68337;52.196;5.660;2024-03-22T04:38:48;10.70;99.90
75321;DHT22;68337;52.196;5.660;2024-03-22T04:41:13;10.70;99.90
75321;DHT22;68337;52.196;5.660;2024-03-22T04:43:39;10.70;99.90
75321;DHT22;68337;52.196;5.660;2024-03-22T04:46:05;10.60;99.90
75321;DHT22;68337;52.196;5.660;2024-03-22T04:48:30;10.60;99.90
75321;DHT22;68337;52.196;5.660;2024-03-22T04:50:56;10.60;99.90
75321;DHT22;68337;52.196;5.660;2024-03-22T04:53:22;10.60;99.90
75321;DHT22;68337;52.196;5.660;2024-03-22T04:55:49;10.50;99.90
75321;DHT22;68337;52.196;5.660;2024-03-22T04:58:16;10.50;99.90
75321;DHT22;68337;52.196;5.660;2024-03-22T05:00:43;10.50;99.90
75321;DHT22;68337;52.196;5.660;2024-03-22T05:03:09;10.60;99.90
75321;DHT22;68337;52.196;5.660;2024-03-22T05:05:35;10.50;99.90
75321;DHT22;68337;52.196;5.660;2024-03-22T05:08:01;10.50;99.90
75321;DHT22;68337;52.196;5.660;2024-03-22T05:10:27;10.50;99.90
75321;DHT22;68337;52.196;5.660;2024-03-22T05:12:54;10.50;99.90
75321;DHT22;68337;52.196;5.660;2024-03-22T05:15:20;10.50;99.90
75321;DHT22;68337;52.196;5.660;2024-03-22T05:17:46;10.50;99.90
75321;DHT22;68337;52.196;5.660;2024-03-22T05:20:12;10.50;99.90
75321;DHT22;68337;52.196;5.660;2024-03-22T05:22:38;10.40;99.90
75321;DHT22;68337;52.196;5.660;2024-03-22T05:25:04;10.50;99.90
75321;DHT22;68337;52.196;5.660;2024-03-22T05:27:31;10.50;99.90
75321;DHT22;68337;52.196;5.660;2024-03-22T05:29:58;10.50;99.90
75321;DHT22;68337;52.196;5.660;2024-03-22T05:32:25;10.50;99.90
75321;DHT22;68337;52.196;5.660;2024-03-22T05:34:51;10.40;99.90
75321;DHT22;68337;52.196;5.660;2024-03-22T05:37:16;10.50;99.90
75321;DHT22;68337;52.196;5.660;2024-03-22T05:39:42;10.50;99.90
75321;DHT22;68337;52.196;5.660;2024-03-22T05:42:08;10.50;99.90
75321;DHT22;68337;52.196;5.660;2024-03-22T05:44:34;10.50;99.90
75321;DHT22;68337;52.196;5.660;2024-03-22T05:47:00;10.50;99.90
75321;DHT22;68337;52.196;5.660;2024-03-22T05:49:26;10.50;99.90
75321;DHT22;68337;52.196;5.660;2024-03-22T05:51:52;10.40;99.90
75321;DHT22;68337;52.196;5.660;2024-03-22T05:54:18;10.50;99.90
75321;DHT22;68337;52.196;5.660;2024-03-22T05:56:44;10.40;99.90
75321;DHT22;68337;52.196;5.660;2024-03-22T05:59:10;10.40;99.90
75321;DHT22;68337;52.196;5.660;2024-03-22T06:01:36;10.40;99.90
75321;DHT22;68337;52.196;5.660;2024-03-22T06:04:04;10.40;99.90
75321;DHT22;68337;52.196;5.660;2024-03-22T06:06:32;10.50;99.90
75321;DHT22;68337;52.196;5.660;2024-03-22T06:08:58;10.40;99.90
75321;DHT22;68337;52.196;5.660;2024-03-22T06:11:26;10.40;99.90
75321;DHT22;68337;52.196;5.660;2024-03-22T06:13:51;10.40;99.90
75321;DHT22;68337;52.196;5.660;2024-03-22T06:16:17;10.40;99.90
75321;DHT22;68337;52.196;5.660;2024-03-22T06:18:43;10.40;99.90
75321;DHT22;68337;52.196;5.660;2024-03-22T06:21:09;10.40;99.90
75321;DHT22;68337;52.196;5.660;2024-03-22T06:23:34;10.40;99.90
75321;DHT22;68337;52.196;5.660;2024-03-22T06:26:00;10.50;99.90
75321;DHT22;68337;52.196;5.660;2024-03-22T06:28:28;10.50;99.90
75321;DHT22;68337;52.196;5.660;2024-03-22T06:30:54;10.50;99.90
75321;DHT22;68337;52.196;5.660;2024-03-22T06:33:21;10.50;99.90
75321;DHT22;68337;52.196;5.660;2024-03-22T06:35:47;10.50;99.90
75321;DHT22;68337;52.196;5.660;2024-03-22T06:38:13;10.60;99.90
75321;DHT22;68337;52.196;5.660;2024-03-22T06:40:39;10.60;99.90
75321;DHT22;68337;52.196;5.660;2024-03-22T06:43:05;10.60;99.90
75321;DHT22;68337;52.196;5.660;2024-03-22T06:45:31;10.70;99.90
75321;DHT22;68337;52.196;5.660;2024-03-22T06:47:56;10.70;99.90
75321;DHT22;68337;52.196;5.660;2024-03-22T06:50:22;10.70;99.90
75321;DHT22;68337;52.196;5.660;2024-03-22T06:52:54;10.70;99.90
75321;DHT22;68337;52.196;5.660;2024-03-22T06:55:20;10.80;99.90
75321;DHT22;68337;52.196;5.660;2024-03-22T06:57:47;10.80;99.90
75321;DHT22;68337;52.196;5.660;2024-03-22T07:00:14;10.80;99.90
75321;DHT22;68337;52.196;5.660;2024-03-22T07:02:40;10.80;99.90
75321;DHT22;68337;52.196;5.660;2024-03-22T07:05:07;10.90;99.90
75321;DHT22;68337;52.196;5.660;2024-03-22T07:07:34;11.00;99.90
75321;DHT22;68337;52.196;5.660;2024-03-22T07:10:00;11.00;99.90
75321;DHT22;68337;52.196;5.660;2024-03-22T07:12:26;11.00;99.90
75321;DHT22;68337;52.196;5.660;2024-03-22T07:14:52;11.00;99.90
75321;DHT22;68337;52.196;5.660;2024-03-22T07:17:17;11.10;99.90
75321;DHT22;68337;52.196;5.660;2024-03-22T07:19:45;11.20;99.90
75321;DHT22;68337;52.196;5.660;2024-03-22T07:22:10;11.20;99.90
75321;DHT22;68337;52.196;5.660;2024-03-22T07:24:36;11.20;99.90
75321;DHT22;68337;52.196;5.660;2024-03-22T07:27:02;11.10;99.90
75321;DHT22;68337;52.196;5.660;2024-03-22T07:29:28;11.20;99.90
75321;DHT22;68337;52.196;5.660;2024-03-22T07:31:53;11.20;99.90
75321;DHT22;68337;52.196;5.660;2024-03-22T07:34:19;11.30;99.90
75321;DHT22;68337;52.196;5.660;2024-03-22T07:36:44;11.20;99.90
75321;DHT22;68337;52.196;5.660;2024-03-22T07:39:10;11.20;99.90
75321;DHT22;68337;52.196;5.660;2024-03-22T07:41:36;11.30;99.90
75321;DHT22;68337;52.196;5.660;2024-03-22T07:44:02;11.30;99.90
75321;DHT22;68337;52.196;5.660;2024-03-22T07:46:28;11.30;99.90
75321;DHT22;68337;52.196;5.660;2024-03-22T07:48:54;11.30;99.90
75321;DHT22;68337;52.196;5.660;2024-03-22T07:51:20;11.20;99.90
75321;DHT22;68337;52.196;5.660;2024-03-22T07:53:46;11.20;99.90
75321;DHT22;68337;52.196;5.660;2024-03-22T07:56:11;11.20;99.90
75321;DHT22;68337;52.196;5.660;2024-03-22T07:58:38;11.20;99.90
75321;DHT22;68337;52.196;5.660;2024-03-22T08:01:04;11.20;99.90
75321;DHT22;68337;52.196;5.660;2024-03-22T08:03:31;11.10;99.90
75321;DHT22;68337;52.196;5.660;2024-03-22T08:05:56;11.10;99.90
75321;DHT22;68337;52.196;5.660;2024-03-22T08:08:22;11.10;99.90
75321;DHT22;68337;52.196;5.660;2024-03-22T08:10:48;11.00;99.90
75321;DHT22;68337;52.196;5.660;2024-03-22T08:13:13;11.00;99.90
75321;DHT22;68337;52.196;5.660;2024-03-22T08:15:40;11.00;99.90
75321;DHT22;68337;52.196;5.660;2024-03-22T08:18:06;11.10;99.90
75321;DHT22;68337;52.196;5.660;2024-03-22T08:20:33;11.00;99.90
75321;DHT22;68337;52.196;5.660;2024-03-22T08:22:59;11.10;99.90
75321;DHT22;68337;52.196;5.660;2024-03-22T08:25:25;11.10;99.90
75321;DHT22;68337;52.196;5.660;2024-03-22T08:27:51;11.10;99.90
75321;DHT22;68337;52.196;5.660;2024-03-22T08:30:21;11.10;99.90
75321;DHT22;68337;52.196;5.660;2024-03-22T08:32:46;11.10;99.90
75321;DHT22;68337;52.196;5.660;2024-03-22T08:35:12;11.10;99.90
75321;DHT22;68337;52.196;5.660;2024-03-22T08:37:38;11.20;99.90
75321;DHT22;68337;52.196;5.660;2024-03-22T08:40:04;11.20;99.90
75321;DHT22;68337;52.196;5.660;2024-03-22T08:42:30;11.10;99.90
75321;DHT22;68337;52.196;5.660;2024-03-22T08:44:56;11.10;99.90
75321;DHT22;68337;52.196;5.660;2024-03-22T08:47:21;11.00;99.90
75321;DHT22;68337;52.196;5.660;2024-03-22T08:49:49;11.00;99.90
75321;DHT22;68337;52.196;5.660;2024-03-22T08:52:15;11.10;99.90
75321;DHT22;68337;52.196;5.660;2024-03-22T08:54:40;11.00;99.90
75321;DHT22;68337;52.196;5.660;2024-03-22T08:57:06;11.00;99.90
75321;DHT22;68337;52.196;5.660;2024-03-22T08:59:32;10.90;99.90
75321;DHT22;68337;52.196;5.660;2024-03-22T09:01:58;10.90;99.90
75321;DHT22;68337;52.196;5.660;2024-03-22T09:04:25;10.90;99.90
75321;DHT22;68337;52.196;5.660;2024-03-22T09:06:51;10.90;99.90
75321;DHT22;68337;52.196;5.660;2024-03-22T09:09:16;10.90;99.90
75321;DHT22;68337;52.196;5.660;2024-03-22T09:11:43;10.90;99.90
75321;DHT22;68337;52.196;5.660;2024-03-22T09:14:08;10.90;99.90
75321;DHT22;68337;52.196;5.660;2024-03-22T09:16:34;10.90;99.90
75321;DHT22;68337;52.196;5.660;2024-03-22T09:19:00;10.90;99.90
75321;DHT22;68337;52.196;5.660;2024-03-22T09:21:26;10.80;99.90
75321;DHT22;68337;52.196;5.660;2024-03-22T09:23:52;10.90;99.90
75321;DHT22;68337;52.196;5.660;2024-03-22T09:26:17;10.80;99.90
75321;DHT22;68337;52.196;5.660;2024-03-22T09:28:46;10.90;99.90
75321;DHT22;68337;52.196;5.660;2024-03-22T09:31:11;10.90;99.90
75321;DHT22;68337;52.196;5.660;2024-03-22T09:33:37;10.90;99.90
75321;DHT22;68337;52.196;5.660;2024-03-22T09:36:03;10.90;99.90
75321;DHT22;68337;52.196;5.660;2024-03-22T09:38:29;10.90;99.90
75321;DHT22;68337;52.196;5.660;2024-03-22T09:40:55;10.90;99.90
75321;DHT22;68337;52.196;5.660;2024-03-22T09:43:21;10.90;99.90
75321;DHT22;68337;52.196;5.660;2024-03-22T09:45:49;10.90;99.90
75321;DHT22;68337;52.196;5.660;2024-03-22T09:48:18;10.90;99.90
75321;DHT22;68337;52.196;5.660;2024-03-22T09:50:46;10.90;99.90
75321;DHT22;68337;52.196;5.660;2024-03-22T09:53:17;10.80;99.90
75321;DHT22;68337;52.196;5.660;2024-03-22T09:55:45;10.80;99.90
75321;DHT22;68337;52.196;5.660;2024-03-22T09:58:10;10.90;99.90
75321;DHT22;68337;52.196;5.660;2024-03-22T10:00:36;10.80;99.90
75321;DHT22;68337;52.196;5.660;2024-03-22T10:03:04;10.80;99.90
75321;DHT22;68337;52.196;5.660;2024-03-22T10:05:30;10.80;99.90
75321;DHT22;68337;52.196;5.660;2024-03-22T10:07:56;10.80;99.90
75321;DHT22;68337;52.196;5.660;2024-03-22T10:10:22;10.80;99.90
75321;DHT22;68337;52.196;5.660;2024-03-22T10:12:48;10.80;99.90
75321;DHT22;68337;52.196;5.660;2024-03-22T10:15:14;10.80;99.90
75321;DHT22;68337;52.196;5.660;2024-03-22T10:17:41;10.80;99.90
75321;DHT22;68337;52.196;5.660;2024-03-22T10:20:07;10.90;99.90
75321;DHT22;68337;52.196;5.660;2024-03-22T10:22:43;10.90;99.90
75321;DHT22;68337;52.196;5.660;2024-03-22T10:25:13;10.90;99.90
75321;DHT22;68337;52.196;5.660;2024-03-22T10:27:39;10.90;99.90
75321;DHT22;68337;52.196;5.660;2024-03-22T10:30:09;11.00;99.90
75321;DHT22;68337;52.196;5.660;2024-03-22T10:32:36;11.10;99.90
75321;DHT22;68337;52.196;5.660;2024-03-22T10:35:03;11.00;99.90
75321;DHT22;68337;52.196;5.660;2024-03-22T10:37:32;11.00;99.90
75321;DHT22;68337;52.196;5.660;2024-03-22T10:40:01;11.10;99.90
75321;DHT22;68337;52.196;5.660;2024-03-22T10:42:34;11.20;99.90
75321;DHT22;68337;52.196;5.660;2024-03-22T10:45:01;11.30;99.90
75321;DHT22;68337;52.196;5.660;2024-03-22T10:47:30;11.20;99.90
75321;DHT22;68337;52.196;5.660;2024-03-22T10:52:34;11.20;99.90
75321;DHT22;68337;52.196;5.660;2024-03-22T10:55:03;11.20;99.90
75321;DHT22;68337;52.196;5.660;2024-03-22T10:57:30;11.20;99.90
75321;DHT22;68337;52.196;5.660;2024-03-22T10:59:56;11.20;99.90
75321;DHT22;68337;52.196;5.660;2024-03-22T11:02:24;11.20;99.90
75321;DHT22;68337;52.196;5.660;2024-03-22T11:04:57;11.10;99.90
75321;DHT22;68337;52.196;5.660;2024-03-22T11:07:23;11.10;99.90
75321;DHT22;68337;52.196;5.660;2024-03-22T11:09:56;11.20;99.90
75321;DHT22;68337;52.196;5.660;2024-03-22T11:12:24;11.20;99.90
75321;DHT22;68337;52.196;5.660;2024-03-22T11:14:51;11.20;99.90
75321;DHT22;68337;52.196;5.660;2024-03-22T11:17:17;11.10;99.90
75321;DHT22;68337;52.196;5.660;2024-03-22T11:19:43;11.10;99.90
75321;DHT22;68337;52.196;5.660;2024-03-22T11:22:09;11.20;99.90
75321;DHT22;68337;52.196;5.660;2024-03-22T11:24:37;11.20;99.90
75321;DHT22;68337;52.196;5.660;2024-03-22T11:27:03;11.20;99.90
75321;DHT22;68337;52.196;5.660;2024-03-22T11:29:29;11.30;99.90
75321;DHT22;68337;52.196;5.660;2024-03-22T11:31:55;11.30;99.90
75321;DHT22;68337;52.196;5.660;2024-03-22T11:34:21;11.30;99.90
75321;DHT22;68337;52.196;5.660;2024-03-22T11:36:46;11.40;99.90
75321;DHT22;68337;52.196;5.660;2024-03-22T11:39:12;11.30;99.90
75321;DHT22;68337;52.196;5.660;2024-03-22T11:41:38;11.40;99.90
75321;DHT22;68337;52.196;5.660;2024-03-22T11:44:05;11.40;99.90
75321;DHT22;68337;52.196;5.660;2024-03-22T11:46:31;11.40;99.90
75321;DHT22;68337;52.196;5.660;2024-03-22T11:48:57;11.40;99.90
75321;DHT22;68337;52.196;5.660;2024-03-22T11:51:24;11.50;99.90
75321;DHT22;68337;52.196;5.660;2024-03-22T11:53:51;11.60;99.90
75321;DHT22;68337;52.196;5.660;2024-03-22T11:56:25;11.60;99.90
75321;DHT22;68337;52.196;5.660;2024-03-22T11:58:58;11.60;99.90
75321;DHT22;68337;52.196;5.660;2024-03-22T12:01:23;11.60;99.90
75321;DHT22;68337;52.196;5.660;2024-03-22T12:03:49;11.70;99.90
75321;DHT22;68337;52.196;5.660;2024-03-22T12:06:15;11.70;99.90
75321;DHT22;68337;52.196;5.660;2024-03-22T12:08:41;11.50;99.90
75321;DHT22;68337;52.196;5.660;2024-03-22T12:11:08;11.50;99.90
75321;DHT22;68337;52.196;5.660;2024-03-22T12:13:34;11.40;99.90
75321;DHT22;68337;52.196;5.660;2024-03-22T12:16:00;11.30;99.90
75321;DHT22;68337;52.196;5.660;2024-03-22T12:18:27;11.40;99.90
75321;DHT22;68337;52.196;5.660;2024-03-22T12:20:53;11.50;99.90
75321;DHT22;68337;52.196;5.660;2024-03-22T12:23:19;11.50;99.90
75321;DHT22;68337;52.196;5.660;2024-03-22T12:25:44;11.40;99.90
75321;DHT22;68337;52.196;5.660;2024-03-22T12:28:10;11.40;99.90
75321;DHT22;68337;52.196;5.660;2024-03-22T12:30:36;11.40;99.90
75321;DHT22;68337;52.196;5.660;2024-03-22T12:33:02;11.40;99.90
75321;DHT22;68337;52.196;5.660;2024-03-22T12:35:27;11.40;99.90
75321;DHT22;68337;52.196;5.660;2024-03-22T12:37:57;11.40;99.90
75321;DHT22;68337;52.196;5.660;2024-03-22T12:40:23;11.50;99.90
75321;DHT22;68337;52.196;5.660;2024-03-22T12:42:49;11.50;99.90
75321;DHT22;68337;52.196;5.660;2024-03-22T12:45:14;11.40;99.90
75321;DHT22;68337;52.196;5.660;2024-03-22T12:47:40;11.40;99.90
75321;DHT22;68337;52.196;5.660;2024-03-22T12:50:06;11.40;99.90
75321;DHT22;68337;52.196;5.660;2024-03-22T12:52:32;11.30;99.90
75321;DHT22;68337;52.196;5.660;2024-03-22T12:54:58;11.30;99.90
75321;DHT22;68337;52.196;5.660;2024-03-22T12:57:24;11.30;99.90
75321;DHT22;68337;52.196;5.660;2024-03-22T12:59:50;11.30;99.90
75321;DHT22;68337;52.196;5.660;2024-03-22T13:02:15;11.30;99.90
75321;DHT22;68337;52.196;5.660;2024-03-22T13:04:41;11.20;99.90
75321;DHT22;68337;52.196;5.660;2024-03-22T13:07:08;11.20;99.90
75321;DHT22;68337;52.196;5.660;2024-03-22T13:09:34;11.10;99.90
75321;DHT22;68337;52.196;5.660;2024-03-22T13:12:00;11.20;99.90
75321;DHT22;68337;52.196;5.660;2024-03-22T13:14:26;11.20;99.90
75321;DHT22;68337;52.196;5.660;2024-03-22T13:16:53;11.30;99.90
75321;DHT22;68337;52.196;5.660;2024-03-22T13:19:18;11.30;99.90
75321;DHT22;68337;52.196;5.660;2024-03-22T13:21:44;11.20;99.90
75321;DHT22;68337;52.196;5.660;2024-03-22T13:24:13;11.30;99.90
75321;DHT22;68337;52.196;5.660;2024-03-22T13:26:39;11.10;99.90
75321;DHT22;68337;52.196;5.660;2024-03-22T13:29:05;11.20;99.90
75321;DHT22;68337;52.196;5.660;2024-03-22T13:31:30;11.20;99.90
75321;DHT22;68337;52.196;5.660;2024-03-22T13:33:56;11.20;99.90
75321;DHT22;68337;52.196;5.660;2024-03-22T13:36:24;11.30;99.90
75321;DHT22;68337;52.196;5.660;2024-03-22T13:38:51;11.30;99.90
75321;DHT22;68337;52.196;5.660;2024-03-22T13:41:17;11.20;99.90
75321;DHT22;68337;52.196;5.660;2024-03-22T13:43:42;11.10;99.90
75321;DHT22;68337;52.196;5.660;2024-03-22T13:46:10;11.10;99.90
75321;DHT22;68337;52.196;5.660;2024-03-22T13:48:40;11.00;99.90
75321;DHT22;68337;52.196;5.660;2024-03-22T13:51:06;11.10;99.90
75321;DHT22;68337;52.196;5.660;2024-03-22T13:53:31;11.10;99.90
75321;DHT22;68337;52.196;5.660;2024-03-22T13:55:57;11.10;99.90
75321;DHT22;68337;52.196;5.660;2024-03-22T13:58:23;11.10;99.90
75321;DHT22;68337;52.196;5.660;2024-03-22T14:00:48;11.20;99.90
75321;DHT22;68337;52.196;5.660;2024-03-22T14:03:14;11.20;99.90
75321;DHT22;68337;52.196;5.660;2024-03-22T14:05:40;11.30;99.90
75321;DHT22;68337;52.196;5.660;2024-03-22T14:08:06;11.30;99.90
75321;DHT22;68337;52.196;5.660;2024-03-22T14:10:32;11.40;99.90
75321;DHT22;68337;52.196;5.660;2024-03-22T14:12:58;11.40;99.90
75321;DHT22;68337;52.196;5.660;2024-03-22T14:15:24;11.50;99.90
75321;DHT22;68337;52.196;5.660;2024-03-22T14:17:52;11.40;99.90
75321;DHT22;68337;52.196;5.660;2024-03-22T14:20:18;11.40;99.90
75321;DHT22;68337;52.196;5.660;2024-03-22T14:22:44;11.40;99.90
75321;DHT22;68337;52.196;5.660;2024-03-22T14:25:11;11.50;99.90
75321;DHT22;68337;52.196;5.660;2024-03-22T14:27:38;11.50;99.90
75321;DHT22;68337;52.196;5.660;2024-03-22T14:30:05;11.60;99.90
75321;DHT22;68337;52.196;5.660;2024-03-22T14:32:34;11.60;99.90
75321;DHT22;68337;52.196;5.660;2024-03-22T14:35:00;11.50;99.90
75321;DHT22;68337;52.196;5.660;2024-03-22T14:37:26;11.60;99.90
75321;DHT22;68337;52.196;5.660;2024-03-22T14:39:52;11.50;99.90
75321;DHT22;68337;52.196;5.660;2024-03-22T14:42:17;11.40;99.90
75321;DHT22;68337;52.196;5.660;2024-03-22T14:44:43;11.50;99.90
75321;DHT22;68337;52.196;5.660;2024-03-22T14:47:10;11.50;99.90
75321;DHT22;68337;52.196;5.660;2024-03-22T14:49:36;11.60;99.90
75321;DHT22;68337;52.196;5.660;2024-03-22T14:52:01;11.60;99.90
75321;DHT22;68337;52.196;5.660;2024-03-22T14:54:27;11.60;99.90
75321;DHT22;68337;52.196;5.660;2024-03-22T14:56:53;11.50;99.90
75321;DHT22;68337;52.196;5.660;2024-03-22T14:59:20;11.40;99.90
75321;DHT22;68337;52.196;5.660;2024-03-22T15:01:46;11.40;99.90
75321;DHT22;68337;52.196;5.660;2024-03-22T15:04:12;11.30;99.90
75321;DHT22;68337;52.196;5.660;2024-03-22T15:06:38;11.30;99.90
75321;DHT22;68337;52.196;5.660;2024-03-22T15:09:04;11.30;99.90
75321;DHT22;68337;52.196;5.660;2024-03-22T15:11:35;11.30;99.90
75321;DHT22;68337;52.196;5.660;2024-03-22T15:14:01;11.20;99.90
75321;DHT22;68337;52.196;5.660;2024-03-22T15:16:28;11.20;99.90
75321;DHT22;68337;52.196;5.660;2024-03-22T15:18:54;11.20;99.90
75321;DHT22;68337;52.196;5.660;2024-03-22T15:21:19;11.20;99.90
75321;DHT22;68337;52.196;5.660;2024-03-22T15:23:46;11.10;99.90
75321;DHT22;68337;52.196;5.660;2024-03-22T15:26:12;11.00;99.90
75321;DHT22;68337;52.196;5.660;2024-03-22T15:28:38;11.10;99.90
75321;DHT22;68337;52.196;5.660;2024-03-22T15:31:04;11.00;99.90
75321;DHT22;68337;52.196;5.660;2024-03-22T15:33:29;10.90;99.90
75321;DHT22;68337;52.196;5.660;2024-03-22T15:35:55;10.90;99.90